Time;durP1;ratioP1;P1;durP2;ratioP2;P2;SDS_P1;SDS_P2;PMS_P1;PMS_P2;Temp;Humidity;BMP_temperature;BMP_pressure;BME280_temperature;BME280_humidity;BME280_pressure;Samples;Min_cycle;Max_cycle;Signal;HPM_P1;HPM_P2
2022/12/29 00:01:01;;;;;;;;;11.50;10.00;;;;;;;;114680;1203;24839;-75
2022/12/29 00:03:30;;;;;;;;;14.00;9.67;;;;;;;;114767;1206;25572;-75
2022/12/29 00:06:00;;;;;;;;;12.00;10.67;;;;;;;;114778;1203;24973;-76
2022/12/29 00:08:39;;;;;;;;;11.00;11.00;;;;;;;;114660;1209;25471;-75
2022/12/29 00:11:16;;;;;;;;;12.00;8.00;;;;;;;;114640;1203;25278;-76
2022/12/29 00:16:33;;;;;;;;;13.00;9.00;;;;;;;;114643;1211;24679;-75
2022/12/29 00:19:03;;;;;;;;;10.67;10.00;;;;;;;;114785;1209;25270;-76
2022/12/29 00:35:33;;;;;;;;;8.00;7.00;;;;;;;;114697;1203;25607;-76
2022/12/29 00:46:25;;;;;;;;;11.00;9.00;;;;;;;;114726;1203;25180;-75
2022/12/29 00:51:42;;;;;;;;;9.50;7.00;;;;;;;;114701;1209;25435;-77
2022/12/29 00:54:10;;;;;;;;;10.50;7.50;;;;;;;;114726;1202;24823;-75
2022/12/29 00:56:38;;;;;;;;;12.00;7.00;;;;;;;;114592;1203;25270;-75
2022/12/29 00:59:09;;;;;;;;;7.50;7.50;;;;;;;;114690;1211;25665;-79
2022/12/29 01:01:38;;;;;;;;;9.00;9.00;;;;;;;;114601;1209;25399;-84
2022/12/29 01:04:08;;;;;;;;;6.50;6.50;;;;;;;;114606;1203;25425;-82
2022/12/29 01:06:38;;;;;;;;;5.50;4.00;;;;;;;;114688;1209;25664;-78
2022/12/29 01:11:55;;;;;;;;;7.00;6.00;;;;;;;;114794;1206;25082;-76
2022/12/29 01:14:24;;;;;;;;;10.00;9.00;;;;;;;;114589;1205;24900;-76
2022/12/29 01:16:53;;;;;;;;;6.50;6.50;;;;;;;;114620;1211;24956;-82
2022/12/29 01:19:22;;;;;;;;;7.67;7.00;;;;;;;;114629;1202;25190;-85
2022/12/29 01:21:51;;;;;;;;;11.00;9.00;;;;;;;;114670;1203;25094;-85
2022/12/29 01:24:20;;;;;;;;;8.00;6.00;;;;;;;;114720;1203;24674;-85
2022/12/29 01:26:49;;;;;;;;;6.33;6.00;;;;;;;;114761;1200;24784;-85
2022/12/29 01:29:17;;;;;;;;;5.50;5.00;;;;;;;;114772;1206;25243;-79
2022/12/29 01:31:46;;;;;;;;;7.00;6.00;;;;;;;;114684;1207;25027;-75
2022/12/29 01:34:15;;;;;;;;;6.50;6.00;;;;;;;;114707;1199;25642;-75
2022/12/29 01:36:43;;;;;;;;;9.67;8.00;;;;;;;;114704;1211;24928;-75
2022/12/29 01:39:12;;;;;;;;;10.00;9.00;;;;;;;;114772;1200;25037;-74
2022/12/29 01:41:41;;;;;;;;;5.00;5.00;;;;;;;;114715;1203;25195;-74
2022/12/29 01:44:43;;;;;;;;;5.00;5.00;;;;;;;;114744;1204;26007;-76
2022/12/29 01:47:14;;;;;;;;;6.00;4.00;;;;;;;;114800;1206;24852;-76
2022/12/29 01:49:43;;;;;;;;;9.00;8.00;;;;;;;;114733;1206;26481;-75
2022/12/29 01:52:12;;;;;;;;;7.00;5.00;;;;;;;;114727;1206;25587;-75
2022/12/29 01:54:48;;;;;;;;;9.00;7.00;;;;;;;;114677;1211;25583;-76
2022/12/29 01:57:23;;;;;;;;;8.67;6.67;;;;;;;;114763;1206;25661;-75
2022/12/29 02:00:05;;;;;;;;;6.00;6.00;;;;;;;;114643;1201;25186;-77
2022/12/29 02:02:33;;;;;;;;;7.00;7.00;;;;;;;;114749;1203;24697;-77
2022/12/29 02:05:11;;;;;;;;;7.00;6.00;;;;;;;;114824;1203;25601;-76
2022/12/29 02:07:41;;;;;;;;;12.50;6.50;;;;;;;;114865;1206;25390;-76
2022/12/29 02:10:10;;;;;;;;;6.00;6.00;;;;;;;;114814;1200;24836;-75
2022/12/29 02:12:38;;;;;;;;;5.00;4.00;;;;;;;;114869;1205;25594;-77
2022/12/29 02:15:07;;;;;;;;;6.00;5.00;;;;;;;;114865;1204;25035;-78
2022/12/29 02:17:51;;;;;;;;;5.33;4.00;;;;;;;;114817;1207;25595;-76
2022/12/29 02:20:38;;;;;;;;;6.50;5.50;;;;;;;;114912;1207;24960;-76
2022/12/29 02:23:25;;;;;;;;;8.33;6.00;;;;;;;;114923;1205;25352;-75
2022/12/29 02:26:00;;;;;;;;;8.00;6.00;;;;;;;;114788;1206;24719;-75
2022/12/29 02:28:46;;;;;;;;;6.00;6.00;;;;;;;;114709;1200;25450;-74
2022/12/29 02:31:25;;;;;;;;;3.00;3.00;;;;;;;;114706;1203;25303;-74
2022/12/29 02:34:17;;;;;;;;;3.00;3.00;;;;;;;;114814;1200;24738;-83
2022/12/29 02:37:09;;;;;;;;;7.00;5.00;;;;;;;;114786;1206;25316;-82
2022/12/29 02:40:03;;;;;;;;;7.50;5.50;;;;;;;;114867;1206;25500;-75
2022/12/29 02:42:46;;;;;;;;;4.00;4.00;;;;;;;;114864;1204;24720;-75
2022/12/29 02:45:22;;;;;;;;;7.00;7.00;;;;;;;;114893;1203;25316;-75
2022/12/29 02:48:04;;;;;;;;;6.00;5.00;;;;;;;;114847;1206;25716;-75
2022/12/29 02:51:03;;;;;;;;;10.00;7.50;;;;;;;;114894;1206;24809;-75
2022/12/29 02:56:21;;;;;;;;;3.33;2.00;;;;;;;;114899;1207;24953;-76
2022/12/29 02:58:49;;;;;;;;;6.50;5.50;;;;;;;;114915;1202;25124;-76
2022/12/29 03:01:23;;;;;;;;;5.00;5.00;;;;;;;;114849;1205;25458;-76
2022/12/29 03:04:16;;;;;;;;;7.00;6.50;;;;;;;;114898;1200;25546;-76
2022/12/29 03:07:04;;;;;;;;;9.00;5.00;;;;;;;;114894;1208;25578;-76
2022/12/29 03:09:43;;;;;;;;;6.00;6.00;;;;;;;;114809;1200;25290;-77
2022/12/29 03:16:05;;;;;;;;;5.50;5.00;;;;;;;;114877;1200;25651;-78
2022/12/29 03:18:39;;;;;;;;;6.00;4.00;;;;;;;;114869;1196;25434;-75
2022/12/29 03:21:20;;;;;;;;;4.00;4.00;;;;;;;;114846;1206;25628;-76
2022/12/29 03:23:49;;;;;;;;;4.00;4.00;;;;;;;;114799;1200;24916;-76
2022/12/29 03:26:20;;;;;;;;;5.50;5.00;;;;;;;;114840;1204;24739;-76
2022/12/29 03:28:53;;;;;;;;;4.67;3.00;;;;;;;;114867;1204;25465;-76
2022/12/29 03:39:18;;;;;;;;;2.67;2.67;;;;;;;;113767;1214;23217;-75
2022/12/29 03:41:49;;;;;;;;;6.00;4.00;;;;;;;;114386;1209;25182;-75
2022/12/29 03:44:17;;;;;;;;;6.67;4.67;;;;;;;;114406;1206;25211;-79
2022/12/29 03:46:45;;;;;;;;;3.50;3.50;;;;;;;;114402;1214;24874;-75
2022/12/29 03:49:14;;;;;;;;;6.00;5.00;;;;;;;;114442;1206;25235;-74
2022/12/29 03:51:45;;;;;;;;;5.00;4.00;;;;;;;;114406;1209;26187;-75
2022/12/29 03:54:16;;;;;;;;;6.00;4.33;;;;;;;;114427;1213;24988;-75
2022/12/29 03:56:45;;;;;;;;;5.00;3.00;;;;;;;;114440;1214;25032;-75
2022/12/29 03:59:14;;;;;;;;;5.33;5.33;;;;;;;;114421;1214;25283;-76
2022/12/29 04:01:42;;;;;;;;;2.50;2.00;;;;;;;;114416;1206;24976;-74
2022/12/29 04:04:11;;;;;;;;;4.50;3.00;;;;;;;;114399;1214;25095;-75
2022/12/29 04:06:39;;;;;;;;;6.50;4.00;;;;;;;;114423;1210;25076;-75
2022/12/29 04:09:09;;;;;;;;;6.50;5.00;;;;;;;;114388;1214;25163;-76
2022/12/29 04:11:38;;;;;;;;;5.00;5.00;;;;;;;;114435;1209;25625;-76
2022/12/29 04:14:06;;;;;;;;;6.00;4.00;;;;;;;;114420;1210;25311;-75
2022/12/29 04:16:38;;;;;;;;;4.50;3.00;;;;;;;;114400;1208;25571;-76
2022/12/29 04:19:07;;;;;;;;;6.67;5.67;;;;;;;;114400;1212;25434;-73
2022/12/29 04:21:36;;;;;;;;;5.00;4.50;;;;;;;;114426;1212;25108;-76
2022/12/29 04:24:08;;;;;;;;;4.33;4.00;;;;;;;;114412;1214;25214;-77
2022/12/29 04:26:37;;;;;;;;;7.00;4.00;;;;;;;;114430;1210;25079;-76
2022/12/29 04:29:05;;;;;;;;;3.50;3.50;;;;;;;;114423;1210;25609;-76
2022/12/29 04:31:34;;;;;;;;;3.67;3.67;;;;;;;;114423;1209;24798;-76
2022/12/29 04:34:03;;;;;;;;;4.00;4.00;;;;;;;;114464;1205;25156;-76
2022/12/29 04:36:31;;;;;;;;;4.00;4.00;;;;;;;;114425;1212;25355;-75
2022/12/29 04:39:00;;;;;;;;;6.00;5.00;;;;;;;;114412;1210;25157;-76
2022/12/29 04:41:29;;;;;;;;;5.33;4.00;;;;;;;;114395;1206;25072;-76
2022/12/29 04:43:57;;;;;;;;;5.50;4.25;;;;;;;;114419;1212;24817;-75
2022/12/29 04:46:25;;;;;;;;;4.67;2.67;;;;;;;;114423;1206;24703;-75
2022/12/29 04:48:54;;;;;;;;;7.25;5.75;;;;;;;;114447;1214;25606;-74
2022/12/29 04:51:23;;;;;;;;;5.00;5.00;;;;;;;;114480;1213;25253;-75
2022/12/29 04:53:51;;;;;;;;;5.00;4.00;;;;;;;;114388;1214;25072;-75
2022/12/29 04:56:19;;;;;;;;;3.00;3.00;;;;;;;;114374;1206;25649;-75
2022/12/29 04:58:48;;;;;;;;;6.00;5.00;;;;;;;;114435;1205;25220;-74
2022/12/29 05:01:16;;;;;;;;;6.00;5.00;;;;;;;;114448;1210;25586;-75
2022/12/29 05:03:45;;;;;;;;;6.00;4.00;;;;;;;;114363;1214;24792;-75
2022/12/29 05:06:14;;;;;;;;;6.00;5.00;;;;;;;;114356;1215;24738;-76
2022/12/29 05:08:43;;;;;;;;;7.00;6.00;;;;;;;;114420;1207;25195;-75
2022/12/29 05:11:11;;;;;;;;;6.33;5.67;;;;;;;;114364;1212;25435;-76
2022/12/29 05:13:39;;;;;;;;;6.00;5.50;;;;;;;;114431;1214;25664;-73
2022/12/29 05:16:08;;;;;;;;;11.00;5.00;;;;;;;;114400;1214;25272;-74
2022/12/29 05:18:37;;;;;;;;;4.00;3.75;;;;;;;;114426;1212;25479;-75
2022/12/29 05:21:05;;;;;;;;;5.00;4.00;;;;;;;;114387;1214;25169;-74
2022/12/29 05:23:34;;;;;;;;;5.75;5.00;;;;;;;;114387;1206;25183;-75
2022/12/29 05:26:02;;;;;;;;;4.33;3.33;;;;;;;;114382;1212;25281;-75
2022/12/29 05:28:31;;;;;;;;;9.50;5.00;;;;;;;;114411;1215;24746;-77
2022/12/29 05:31:00;;;;;;;;;6.00;4.00;;;;;;;;114416;1205;24970;-76
2022/12/29 05:33:29;;;;;;;;;8.33;4.67;;;;;;;;114449;1209;25629;-76
2022/12/29 05:36:04;;;;;;;;;4.00;2.00;;;;;;;;114773;1208;25351;-73
2022/12/29 05:38:32;;;;;;;;;12.67;11.33;;;;;;;;114695;1206;25096;-81
2022/12/29 05:41:01;;;;;;;;;12.00;10.00;;;;;;;;114601;1207;24913;-71
2022/12/29 05:43:30;;;;;;;;;12.50;9.00;;;;;;;;114724;1209;25651;-77
2022/12/29 05:45:58;;;;;;;;;10.00;7.00;;;;;;;;114640;1206;25089;-79
2022/12/29 05:48:27;;;;;;;;;11.00;9.00;;;;;;;;114653;1207;24811;-76
2022/12/29 05:51:03;;;;;;;;;10.50;9.00;;;;;;;;114716;1210;25279;-77
2022/12/29 05:53:31;;;;;;;;;11.00;11.00;;;;;;;;114737;1206;25733;-76
2022/12/29 05:56:00;;;;;;;;;15.50;11.00;;;;;;;;114705;1209;26121;-76
2022/12/29 05:58:29;;;;;;;;;11.67;11.67;;;;;;;;114746;1203;25039;-70
2022/12/29 06:00:58;;;;;;;;;14.00;12.00;;;;;;;;114701;1201;25547;-81
2022/12/29 06:03:26;;;;;;;;;10.67;10.67;;;;;;;;114675;1199;24689;-76
2022/12/29 06:05:55;;;;;;;;;10.00;10.00;;;;;;;;114612;1205;25551;-76
2022/12/29 06:08:24;;;;;;;;;16.50;14.00;;;;;;;;114585;1210;25121;-77
2022/12/29 06:10:52;;;;;;;;;13.00;10.00;;;;;;;;114751;1201;25410;-80
2022/12/29 06:13:21;;;;;;;;;12.25;11.50;;;;;;;;114763;1203;25376;-79
2022/12/29 06:15:51;;;;;;;;;13.00;11.00;;;;;;;;114745;1200;25520;-78
2022/12/29 06:18:19;;;;;;;;;;;;;;;;;;114669;1209;25158;-77
2022/12/29 06:20:48;;;;;;;;;10.00;10.00;;;;;;;;114671;1211;25019;-74
2022/12/29 06:23:18;;;;;;;;;13.00;11.00;;;;;;;;114613;1211;24755;-78
2022/12/29 06:25:48;;;;;;;;;11.50;11.50;;;;;;;;114707;1199;24766;-77
2022/12/29 06:28:17;;;;;;;;;12.00;9.00;;;;;;;;114698;1201;25641;-77
2022/12/29 06:30:46;;;;;;;;;12.00;9.00;;;;;;;;114686;1207;25067;-79
2022/12/29 06:33:15;;;;;;;;;13.00;11.00;;;;;;;;114676;1205;25154;-75
2022/12/29 06:35:45;;;;;;;;;11.00;9.00;;;;;;;;114659;1211;25230;-77
2022/12/29 06:38:14;;;;;;;;;6.00;6.00;;;;;;;;114645;1209;25133;-65
2022/12/29 06:40:44;;;;;;;;;14.00;11.00;;;;;;;;114682;1203;25484;-67
2022/12/29 06:43:13;;;;;;;;;17.00;11.00;;;;;;;;114678;1196;25528;-70
2022/12/29 06:45:42;;;;;;;;;9.00;9.00;;;;;;;;114587;1206;25715;-64
2022/12/29 06:48:11;;;;;;;;;9.00;8.00;;;;;;;;114688;1211;24712;-65
2022/12/29 06:50:39;;;;;;;;;9.00;7.00;;;;;;;;114772;1203;24915;-64
2022/12/29 06:53:08;;;;;;;;;8.00;5.00;;;;;;;;114762;1206;26255;-65
2022/12/29 06:55:37;;;;;;;;;8.00;8.00;;;;;;;;114698;1211;25216;-72
2022/12/29 06:58:05;;;;;;;;;;;;;;;;;;114581;1202;25499;-61
2022/12/29 07:00:34;;;;;;;;;5.00;5.00;;;;;;;;114605;1204;24904;-69
2022/12/29 07:03:03;;;;;;;;;8.50;6.00;;;;;;;;114608;1206;26459;-68
2022/12/29 07:05:32;;;;;;;;;8.00;8.00;;;;;;;;114681;1203;25022;-69
2022/12/29 07:08:01;;;;;;;;;12.00;7.00;;;;;;;;114727;1209;24950;-65
2022/12/29 07:10:29;;;;;;;;;6.33;6.33;;;;;;;;114676;1203;25638;-69
2022/12/29 07:12:58;;;;;;;;;9.50;6.00;;;;;;;;114627;1206;25531;-67
2022/12/29 07:15:27;;;;;;;;;9.50;7.00;;;;;;;;114711;1203;24951;-67
2022/12/29 07:17:55;;;;;;;;;7.00;7.00;;;;;;;;114705;1207;25016;-66
2022/12/29 07:20:24;;;;;;;;;9.00;9.00;;;;;;;;114713;1204;25557;-66
2022/12/29 07:22:58;;;;;;;;;8.00;8.00;;;;;;;;114665;1211;25079;-66
2022/12/29 07:25:26;;;;;;;;;10.50;7.50;;;;;;;;114694;1203;25029;-63
2022/12/29 07:27:55;;;;;;;;;6.00;6.00;;;;;;;;114617;1206;24736;-63
2022/12/29 07:30:23;;;;;;;;;7.00;5.50;;;;;;;;114635;1206;24788;-64
2022/12/29 07:32:52;;;;;;;;;11.00;7.00;;;;;;;;114615;1207;25575;-63
2022/12/29 07:35:20;;;;;;;;;12.00;7.33;;;;;;;;114595;1203;25498;-66
2022/12/29 07:37:49;;;;;;;;;7.00;7.00;;;;;;;;114710;1203;24970;-64
2022/12/29 07:40:17;;;;;;;;;8.00;6.00;;;;;;;;114770;1202;25185;-67
2022/12/29 07:42:46;;;;;;;;;9.50;7.50;;;;;;;;114650;1206;25249;-62
2022/12/29 07:45:14;;;;;;;;;7.00;6.00;;;;;;;;114633;1206;26192;-69
2022/12/29 07:47:43;;;;;;;;;12.00;8.67;;;;;;;;114799;1203;25781;-69
2022/12/29 07:50:11;;;;;;;;;12.00;7.00;;;;;;;;114700;1200;24796;-61
2022/12/29 07:52:40;;;;;;;;;10.00;8.00;;;;;;;;114698;1206;24787;-58
2022/12/29 07:55:08;;;;;;;;;10.00;9.00;;;;;;;;114728;1206;26280;-60
2022/12/29 07:57:37;;;;;;;;;17.00;9.00;;;;;;;;114894;1203;24923;-59
2022/12/29 08:00:06;;;;;;;;;12.00;9.00;;;;;;;;114728;1210;25179;-59
2022/12/29 08:02:35;;;;;;;;;11.00;6.50;;;;;;;;114816;1206;25641;-60
2022/12/29 08:05:04;;;;;;;;;13.50;10.50;;;;;;;;114682;1206;24770;-60
2022/12/29 08:07:32;;;;;;;;;19.00;13.00;;;;;;;;114719;1196;25569;-59
2022/12/29 08:10:01;;;;;;;;;25.00;13.50;;;;;;;;114756;1206;25557;-59
2022/12/29 08:12:29;;;;;;;;;17.00;13.00;;;;;;;;114777;1208;25356;-59
2022/12/29 08:14:58;;;;;;;;;17.00;13.50;;;;;;;;114729;1209;24955;-60
2022/12/29 08:17:27;;;;;;;;;17.00;11.00;;;;;;;;114636;1211;25070;-60
2022/12/29 08:19:55;;;;;;;;;22.00;19.00;;;;;;;;114686;1200;25585;-59
2022/12/29 08:22:24;;;;;;;;;7.67;7.67;;;;;;;;116782;1204;24714;-59
2022/12/29 08:24:53;;;;;;;;;16.00;12.00;;;;;;;;116772;1205;24705;-59
2022/12/29 08:27:21;;;;;;;;;17.00;11.33;;;;;;;;116728;1207;24905;-59
2022/12/29 08:29:50;;;;;;;;;19.50;13.00;;;;;;;;116805;1203;25133;-59
2022/12/29 08:32:18;;;;;;;;;18.00;12.00;;;;;;;;116706;1207;25317;-59
2022/12/29 08:34:46;;;;;;;;;17.00;14.00;;;;;;;;116790;1199;25272;-59
2022/12/29 08:37:15;;;;;;;;;14.50;8.00;;;;;;;;116748;1197;25217;-59
2022/12/29 08:39:43;;;;;;;;;20.00;13.00;;;;;;;;116757;1199;24952;-60
2022/12/29 08:42:11;;;;;;;;;21.00;16.00;;;;;;;;116726;1203;25607;-62
2022/12/29 08:44:40;;;;;;;;;14.67;12.33;;;;;;;;116705;1207;25148;-59
2022/12/29 08:47:10;;;;;;;;;18.50;14.50;;;;;;;;116800;1200;25186;-61
2022/12/29 08:49:39;;;;;;;;;22.00;15.00;;;;;;;;116728;1196;25663;-61
2022/12/29 08:52:07;;;;;;;;;15.50;14.00;;;;;;;;116748;1199;25213;-61
2022/12/29 08:54:36;;;;;;;;;20.00;17.00;;;;;;;;116747;1199;25613;-60
2022/12/29 08:57:04;;;;;;;;;18.50;14.50;;;;;;;;116776;1196;24766;-60
2022/12/29 08:59:32;;;;;;;;;22.00;15.67;;;;;;;;116774;1203;25489;-61
2022/12/29 09:02:01;;;;;;;;;16.00;14.00;;;;;;;;116762;1198;25540;-61
2022/12/29 09:04:29;;;;;;;;;20.00;17.00;;;;;;;;116740;1203;25422;-59
2022/12/29 09:06:58;;;;;;;;;25.33;18.67;;;;;;;;116731;1200;25131;-60
2022/12/29 09:09:26;;;;;;;;;23.00;19.00;;;;;;;;116744;1200;24928;-60
2022/12/29 09:11:55;;;;;;;;;21.00;14.00;;;;;;;;116744;1203;25268;-60
2022/12/29 09:14:23;;;;;;;;;21.00;18.00;;;;;;;;116745;1208;25139;-60
2022/12/29 09:19:39;;;;;;;;;25.00;16.00;;;;;;;;116783;1196;24826;-60
2022/12/29 09:22:07;;;;;;;;;20.00;18.00;;;;;;;;116796;1198;25549;-59
2022/12/29 09:24:36;;;;;;;;;21.00;18.00;;;;;;;;116790;1199;25002;-59
2022/12/29 09:27:04;;;;;;;;;21.67;17.00;;;;;;;;116742;1204;25649;-60
2022/12/29 09:29:32;;;;;;;;;21.00;17.00;;;;;;;;116720;1203;24790;-60
2022/12/29 09:32:01;;;;;;;;;19.00;16.00;;;;;;;;116770;1199;25105;-60
2022/12/29 09:34:32;;;;;;;;;18.00;16.00;;;;;;;;116759;1195;25308;-60
2022/12/29 09:37:01;;;;;;;;;22.00;16.00;;;;;;;;116785;1197;25400;-58
2022/12/29 09:39:29;;;;;;;;;23.50;17.50;;;;;;;;116753;1208;25377;-59
2022/12/29 09:42:31;;;;;;;;;23.00;19.50;;;;;;;;116706;1200;24788;-59
2022/12/29 09:45:13;;;;;;;;;24.33;20.00;;;;;;;;116751;1196;24856;-59
2022/12/29 09:47:44;;;;;;;;;22.50;20.50;;;;;;;;116738;1200;24846;-70
2022/12/29 09:50:33;;;;;;;;;21.50;18.50;;;;;;;;116780;1200;25067;-61
2022/12/29 09:53:08;;;;;;;;;23.50;21.50;;;;;;;;116795;1200;24747;-57
2022/12/29 09:55:43;;;;;;;;;16.00;14.50;;;;;;;;116766;1195;25211;-59
2022/12/29 09:58:41;;;;;;;;;17.00;16.00;;;;;;;;116785;1202;25282;-60
2022/12/29 10:01:47;;;;;;;;;18.00;18.00;;;;;;;;116788;1196;25603;-58
2022/12/29 10:04:16;;;;;;;;;15.00;15.00;;;;;;;;116766;1199;24953;-59
2022/12/29 10:06:50;;;;;;;;;7.00;4.00;;;;;;;;116762;1204;25438;-58
2022/12/29 10:10:02;;;;;;;;;27.00;21.00;;;;;;;;116753;1199;25382;-59
2022/12/29 10:12:33;;;;;;;;;21.00;19.00;;;;;;;;116748;1199;25290;-60
2022/12/29 10:15:18;;;;;;;;;26.00;20.00;;;;;;;;116757;1200;25582;-61
2022/12/29 10:17:59;;;;;;;;;21.00;19.00;;;;;;;;116792;1199;25654;-60
2022/12/29 10:20:46;;;;;;;;;27.50;22.00;;;;;;;;116752;1203;25157;-62
2022/12/29 10:23:39;;;;;;;;;28.50;21.50;;;;;;;;116766;1202;25426;-62
2022/12/29 10:26:15;;;;;;;;;24.00;20.33;;;;;;;;116810;1196;25042;-61
2022/12/29 10:28:47;;;;;;;;;24.00;21.00;;;;;;;;116773;1206;25140;-61
2022/12/29 10:31:23;;;;;;;;;18.00;17.00;;;;;;;;116770;1200;25223;-63
2022/12/29 10:33:57;;;;;;;;;21.50;21.00;;;;;;;;116763;1202;25325;-64
2022/12/29 10:36:39;;;;;;;;;23.00;19.33;;;;;;;;116798;1197;24763;-64
2022/12/29 10:39:19;;;;;;;;;16.00;16.00;;;;;;;;116752;1197;25532;-62
2022/12/29 10:42:14;;;;;;;;;26.00;21.00;;;;;;;;116792;1200;25227;-63
2022/12/29 10:44:43;;;;;;;;;23.00;20.00;;;;;;;;116723;1200;24788;-65
2022/12/29 10:47:21;;;;;;;;;23.00;18.00;;;;;;;;116790;1198;24821;-66
2022/12/29 10:49:50;;;;;;;;;29.00;23.00;;;;;;;;116740;1206;24696;-63
2022/12/29 10:52:19;;;;;;;;;25.00;21.00;;;;;;;;116771;1199;25386;-69
2022/12/29 10:54:56;;;;;;;;;27.50;18.50;;;;;;;;116788;1204;25450;-67
2022/12/29 10:57:28;;;;;;;;;28.00;22.00;;;;;;;;116806;1205;25222;-63
2022/12/29 10:59:57;;;;;;;;;19.50;17.50;;;;;;;;116781;1199;25422;-62
2022/12/29 11:02:31;;;;;;;;;28.00;22.00;;;;;;;;116758;1199;25205;-63
2022/12/29 11:05:27;;;;;;;;;24.33;21.67;;;;;;;;116757;1203;25431;-62
2022/12/29 11:08:01;;;;;;;;;24.50;23.00;;;;;;;;116763;1208;24931;-62
2022/12/29 11:10:39;;;;;;;;;19.00;15.00;;;;;;;;116773;1200;24739;-62
2022/12/29 11:13:15;;;;;;;;;26.00;23.67;;;;;;;;116776;1206;25440;-61
2022/12/29 11:15:46;;;;;;;;;21.50;18.00;;;;;;;;116812;1196;24715;-71
2022/12/29 11:18:22;;;;;;;;;22.00;17.00;;;;;;;;116744;1208;25486;-63
2022/12/29 11:21:02;;;;;;;;;21.00;19.00;;;;;;;;116783;1199;26029;-61
2022/12/29 11:23:37;;;;;;;;;25.00;19.00;;;;;;;;116786;1206;24822;-73
2022/12/29 11:26:07;;;;;;;;;25.00;16.00;;;;;;;;116789;1192;25262;-66
2022/12/29 11:28:37;;;;;;;;;21.00;19.00;;;;;;;;116735;1199;25122;-62
2022/12/29 11:31:07;;;;;;;;;58.00;45.00;;;;;;;;116785;1199;25775;-64
2022/12/29 11:33:37;;;;;;;;;50.00;40.00;;;;;;;;116747;1200;25323;-66
2022/12/29 11:36:17;;;;;;;;;53.50;42.50;;;;;;;;116741;1200;25052;-64
2022/12/29 11:38:49;;;;;;;;;38.00;32.00;;;;;;;;116693;1200;25461;-71
2022/12/29 11:41:26;;;;;;;;;36.00;29.00;;;;;;;;116764;1200;25257;-66
2022/12/29 11:43:57;;;;;;;;;33.00;29.50;;;;;;;;116688;1200;25339;-70
2022/12/29 11:46:34;;;;;;;;;65.00;46.00;;;;;;;;116731;1193;24994;-64
2022/12/29 11:49:04;;;;;;;;;58.00;43.00;;;;;;;;116790;1200;25066;-62
2022/12/29 11:51:45;;;;;;;;;97.00;69.00;;;;;;;;116711;1205;25651;-69
2022/12/29 11:54:19;;;;;;;;;106.00;82.33;;;;;;;;116763;1208;25222;-63
2022/12/29 11:56:48;;;;;;;;;90.50;59.00;;;;;;;;116793;1202;25631;-61
2022/12/29 11:59:36;;;;;;;;;114.00;76.00;;;;;;;;116725;1206;25224;-61
2022/12/29 12:02:25;;;;;;;;;120.00;80.00;;;;;;;;116739;1195;25099;-61
2022/12/29 12:05:00;;;;;;;;;104.33;81.67;;;;;;;;116999;1187;25733;-63
2022/12/29 12:08:07;;;;;;;;;83.33;59.67;;;;;;;;116798;1200;24898;-62
2022/12/29 12:10:44;;;;;;;;;80.00;60.00;;;;;;;;116753;1199;25465;-62
2022/12/29 12:13:20;;;;;;;;;74.00;54.00;;;;;;;;116785;1199;25036;-62
2022/12/29 12:16:14;;;;;;;;;61.00;49.00;;;;;;;;116745;1200;24872;-64
2022/12/29 12:18:47;;;;;;;;;67.33;48.00;;;;;;;;116799;1206;25613;-68
2022/12/29 12:21:34;;;;;;;;;82.00;57.00;;;;;;;;116768;1204;24986;-70
2022/12/29 12:24:31;;;;;;;;;186.00;149.00;;;;;;;;116795;1203;24714;-76
2022/12/29 12:27:07;;;;;;;;;109.00;100.00;;;;;;;;116733;1198;25300;-65
2022/12/29 12:30:15;;;;;;;;;83.00;68.00;;;;;;;;116768;1198;25193;-64
2022/12/29 12:33:00;;;;;;;;;94.00;77.00;;;;;;;;116644;1206;25312;-67
2022/12/29 12:35:49;;;;;;;;;92.50;74.00;;;;;;;;117003;1203;25281;-67
2022/12/29 12:38:59;;;;;;;;;88.50;66.00;;;;;;;;116621;1208;25349;-66
2022/12/29 12:41:58;;;;;;;;;78.00;59.00;;;;;;;;116634;1196;25082;-63
2022/12/29 12:44:57;;;;;;;;;75.00;57.00;;;;;;;;116739;1208;24863;-64
2022/12/29 12:47:49;;;;;;;;;74.00;55.00;;;;;;;;116717;1195;25392;-62
2022/12/29 12:50:39;;;;;;;;;71.67;53.00;;;;;;;;116745;1203;25262;-68
2022/12/29 12:53:19;;;;;;;;;64.00;49.50;;;;;;;;116786;1200;24932;-65
2022/12/29 12:56:10;;;;;;;;;68.00;50.00;;;;;;;;116799;1200;24723;-64
2022/12/29 12:58:57;;;;;;;;;66.00;50.00;;;;;;;;116781;1189;25366;-63
2022/12/29 13:01:51;;;;;;;;;65.00;48.00;;;;;;;;116772;1198;25089;-68
2022/12/29 13:04:45;;;;;;;;;67.00;50.00;;;;;;;;116775;1199;25742;-62
2022/12/29 13:07:29;;;;;;;;;60.33;48.33;;;;;;;;116723;1208;25209;-70
2022/12/29 13:10:13;;;;;;;;;71.00;48.00;;;;;;;;116727;1196;25446;-68
2022/12/29 13:12:50;;;;;;;;;60.50;46.00;;;;;;;;116723;1203;25537;-67
2022/12/29 13:15:36;;;;;;;;;59.00;43.50;;;;;;;;116747;1200;24791;-67
2022/12/29 13:18:23;;;;;;;;;65.50;45.50;;;;;;;;116747;1199;24974;-68
2022/12/29 13:21:06;;;;;;;;;62.50;47.00;;;;;;;;116756;1202;25453;-65
2022/12/29 13:23:53;;;;;;;;;63.50;45.50;;;;;;;;116732;1201;25648;-70
2022/12/29 13:26:28;;;;;;;;;61.00;46.00;;;;;;;;116763;1200;25146;-68
2022/12/29 13:29:04;;;;;;;;;63.50;47.50;;;;;;;;116804;1198;25094;-67
2022/12/29 13:31:47;;;;;;;;;63.50;48.00;;;;;;;;116783;1199;24750;-65
2022/12/29 13:34:30;;;;;;;;;60.00;47.00;;;;;;;;117042;1197;25455;-77
2022/12/29 13:37:07;;;;;;;;;64.00;48.50;;;;;;;;116802;1208;25586;-75
2022/12/29 13:39:44;;;;;;;;;58.00;45.00;;;;;;;;116699;1193;24946;-64
2022/12/29 13:42:12;;;;;;;;;65.00;46.00;;;;;;;;116802;1208;25359;-73
2022/12/29 13:44:54;;;;;;;;;62.00;48.50;;;;;;;;116769;1193;25299;-77
2022/12/29 13:47:25;;;;;;;;;73.33;53.67;;;;;;;;116778;1196;25542;-68
2022/12/29 13:49:54;;;;;;;;;96.00;67.67;;;;;;;;116752;1196;24786;-75
2022/12/29 13:52:39;;;;;;;;;106.00;85.00;;;;;;;;116771;1196;25217;-75
2022/12/29 13:55:19;;;;;;;;;103.00;76.25;;;;;;;;116740;1200;25379;-83
2022/12/29 13:57:54;;;;;;;;;102.00;80.00;;;;;;;;116797;1208;25273;-69
2022/12/29 14:00:24;;;;;;;;;96.50;71.50;;;;;;;;117038;1198;25757;-68
2022/12/29 14:03:11;;;;;;;;;89.50;63.00;;;;;;;;116626;1194;25219;-75
2022/12/29 14:05:45;;;;;;;;;110.25;83.25;;;;;;;;116802;1206;25535;-66
2022/12/29 14:08:17;;;;;;;;;113.00;78.00;;;;;;;;116806;1203;25030;-62
2022/12/29 14:10:48;;;;;;;;;86.50;75.00;;;;;;;;116761;1199;25252;-62
2022/12/29 14:13:19;;;;;;;;;101.00;77.50;;;;;;;;116800;1206;25759;-60
2022/12/29 14:15:53;;;;;;;;;99.50;77.50;;;;;;;;116742;1194;25181;-74
2022/12/29 14:18:27;;;;;;;;;81.00;64.00;;;;;;;;116793;1202;25455;-65
2022/12/29 14:21:18;;;;;;;;;97.00;74.00;;;;;;;;116744;1203;25544;-80
2022/12/29 14:23:48;;;;;;;;;91.00;70.00;;;;;;;;116810;1208;24817;-67
2022/12/29 14:26:34;;;;;;;;;89.00;67.67;;;;;;;;116802;1196;24664;-72
2022/12/29 14:29:36;;;;;;;;;87.00;70.00;;;;;;;;116782;1200;24939;-74
2022/12/29 14:32:26;;;;;;;;;83.67;63.00;;;;;;;;116728;1199;25563;-74
2022/12/29 14:34:56;;;;;;;;;87.50;64.50;;;;;;;;116769;1199;25775;-65
2022/12/29 14:37:32;;;;;;;;;80.00;63.00;;;;;;;;116775;1199;25775;-70
2022/12/29 14:40:24;;;;;;;;;89.50;68.00;;;;;;;;116722;1195;25069;-71
2022/12/29 14:42:56;;;;;;;;;86.33;66.67;;;;;;;;116777;1206;24769;-68
2022/12/29 14:45:37;;;;;;;;;84.00;58.33;;;;;;;;116739;1202;25286;-66
2022/12/29 14:48:33;;;;;;;;;82.00;64.00;;;;;;;;116776;1203;25662;-77
2022/12/29 14:51:01;;;;;;;;;79.00;54.00;;;;;;;;116768;1201;25263;-72
2022/12/29 14:53:50;;;;;;;;;77.33;53.33;;;;;;;;116755;1202;24909;-71
2022/12/29 14:56:24;;;;;;;;;73.00;54.00;;;;;;;;116743;1201;24847;-70
2022/12/29 14:58:58;;;;;;;;;73.00;51.00;;;;;;;;116745;1196;24674;-69
2022/12/29 15:01:48;;;;;;;;;81.50;59.00;;;;;;;;116780;1208;25433;-72
2022/12/29 15:04:21;;;;;;;;;79.67;58.33;;;;;;;;116759;1208;26097;-67
2022/12/29 15:06:49;;;;;;;;;78.50;59.00;;;;;;;;116762;1195;25483;-66
2022/12/29 15:09:27;;;;;;;;;78.00;55.25;;;;;;;;116833;1198;25665;-64
2022/12/29 15:12:20;;;;;;;;;79.00;56.00;;;;;;;;116748;1203;25352;-66
2022/12/29 15:14:52;;;;;;;;;78.00;55.00;;;;;;;;116734;1199;25373;-69
2022/12/29 15:17:28;;;;;;;;;75.50;54.50;;;;;;;;117079;1203;25079;-68
2022/12/29 15:19:59;;;;;;;;;70.50;52.00;;;;;;;;116738;1203;25387;-66
2022/12/29 15:22:27;;;;;;;;;71.33;55.00;;;;;;;;116728;1208;24938;-66
2022/12/29 15:24:56;;;;;;;;;77.00;54.50;;;;;;;;116711;1200;25029;-69
2022/12/29 15:27:26;;;;;;;;;76.00;54.00;;;;;;;;116746;1207;24973;-78
2022/12/29 15:30:01;;;;;;;;;78.67;53.67;;;;;;;;116707;1199;24797;-76
2022/12/29 15:32:40;;;;;;;;;73.00;53.00;;;;;;;;116748;1202;25370;-74
2022/12/29 15:35:28;;;;;;;;;75.50;55.50;;;;;;;;116718;1201;24883;-81
2022/12/29 15:37:58;;;;;;;;;72.67;53.00;;;;;;;;116751;1203;24942;-84
2022/12/29 15:40:31;;;;;;;;;66.50;50.00;;;;;;;;116764;1206;25102;-70
2022/12/29 15:43:24;;;;;;;;;70.50;53.50;;;;;;;;116820;1193;25172;-75